Time;durP1;ratioP1;P1;durP2;ratioP2;P2;SDS_P1;SDS_P2;PMS_P1;PMS_P2;Temp;Humidity;BMP_temperature;BMP_pressure;BME280_temperature;BME280_humidity;BME280_pressure;Samples;Min_cycle;Max_cycle;Signal;HPM_P1;HPM_P2
2023/06/10 00:01:12;;;;;;;0.00;0.00;;;17.60;72.40;;;;;;5011367;28;20115;-63
2023/06/10 00:03:38;;;;;;;0.00;0.00;;;17.60;72.40;;;;;;5011678;28;20052;-62
2023/06/10 00:06:05;;;;;;;0.00;0.00;;;17.50;72.90;;;;;;5011690;28;20056;-62
2023/06/10 00:08:31;;;;;;;0.00;0.00;;;17.50;72.60;;;;;;4977776;28;20057;-63
2023/06/10 00:10:57;;;;;;;0.00;0.00;;;17.50;72.80;;;;;;5011393;28;20135;-63
2023/06/10 00:13:22;;;;;;;0.00;0.00;;;17.50;72.50;;;;;;4988022;28;20082;-63
2023/06/10 00:15:48;;;;;;;0.00;0.00;;;17.50;72.40;;;;;;5008880;28;20060;-63
2023/06/10 00:18:14;;;;;;;0.00;0.00;;;17.40;72.30;;;;;;5011314;28;20045;-63
2023/06/10 00:20:39;;;;;;;0.00;0.00;;;17.40;72.40;;;;;;5011219;28;20065;-63
2023/06/10 00:23:08;;;;;;;0.00;0.00;;;17.30;72.20;;;;;;5010918;28;20049;-63
2023/06/10 00:25:34;;;;;;;0.00;0.00;;;17.30;72.00;;;;;;4994150;28;20058;-62
2023/06/10 00:27:59;;;;;;;0.00;0.00;;;17.30;72.30;;;;;;5010895;28;20561;-63
2023/06/10 00:30:25;;;;;;;0.00;0.00;;;17.30;72.20;;;;;;5010758;28;20070;-63
2023/06/10 00:32:50;;;;;;;0.00;0.00;;;17.20;72.00;;;;;;5011311;28;20709;-63
2023/06/10 00:35:16;;;;;;;0.00;0.00;;;17.20;72.60;;;;;;5010936;28;20046;-62
2023/06/10 00:37:41;;;;;;;0.00;0.00;;;17.20;72.50;;;;;;5011013;28;20145;-62
2023/06/10 00:40:09;;;;;;;0.00;0.00;;;17.20;72.40;;;;;;5010961;28;20046;-62
2023/06/10 00:42:34;;;;;;;0.00;0.00;;;17.20;72.30;;;;;;4992193;28;20038;-62
2023/06/10 00:45:00;;;;;;;0.10;0.10;;;17.20;72.50;;;;;;4977151;28;20093;-63
2023/06/10 00:47:26;;;;;;;0.00;0.00;;;17.20;72.30;;;;;;5010696;28;20042;-63
2023/06/10 00:49:53;;;;;;;0.45;0.45;;;17.10;72.00;;;;;;5010358;28;20124;-63
2023/06/10 00:52:21;;;;;;;0.00;0.00;;;17.10;71.80;;;;;;4999934;28;20065;-63
2023/06/10 00:54:47;;;;;;;0.00;0.00;;;17.10;72.00;;;;;;4991330;28;20438;-63
2023/06/10 00:57:13;;;;;;;0.10;0.10;;;17.10;71.90;;;;;;5000956;28;20044;-62
2023/06/10 00:59:41;;;;;;;0.00;0.00;;;17.00;72.00;;;;;;4976618;28;20136;-62
2023/06/10 01:02:07;;;;;;;0.00;0.00;;;17.00;72.00;;;;;;5010560;28;20066;-63
2023/06/10 01:04:33;;;;;;;0.00;0.00;;;17.00;72.00;;;;;;4993055;28;20049;-63
2023/06/10 01:07:24;;;;;;;0.00;0.00;;;17.00;72.00;;;;;;5010201;28;20069;-63
2023/06/10 01:09:59;;;;;;;0.00;0.00;;;17.00;72.00;;;;;;5001606;28;20061;-62
2023/06/10 01:12:48;;;;;;;0.00;0.00;;;17.00;72.00;;;;;;4987732;28;20046;-63
2023/06/10 01:15:18;;;;;;;0.00;0.00;;;16.90;72.00;;;;;;5005939;28;20426;-63
2023/06/10 01:18:03;;;;;;;0.00;0.00;;;16.90;72.00;;;;;;5010095;28;20085;-62
2023/06/10 01:20:32;;;;;;;0.00;0.00;;;16.90;72.00;;;;;;5010954;28;20050;-63
2023/06/10 01:23:02;;;;;;;0.00;0.00;;;16.80;72.30;;;;;;5010065;28;20104;-63
2023/06/10 01:25:29;;;;;;;0.00;0.00;;;16.80;72.10;;;;;;5010263;28;20111;-63
2023/06/10 01:28:15;;;;;;;0.00;0.00;;;16.80;72.20;;;;;;5009983;28;20065;-63
2023/06/10 01:31:03;;;;;;;0.30;0.30;;;16.80;72.40;;;;;;5009671;28;20545;-62
2023/06/10 01:33:33;;;;;;;0.08;0.08;;;16.80;72.50;;;;;;4992677;28;20056;-63
2023/06/10 01:36:00;;;;;;;0.00;0.00;;;16.80;72.60;;;;;;5009885;28;20038;-63
2023/06/10 01:38:27;;;;;;;0.00;0.00;;;16.80;72.90;;;;;;4992049;28;20061;-62
2023/06/10 01:40:55;;;;;;;0.00;0.00;;;16.80;72.70;;;;;;5010091;28;20128;-62
2023/06/10 01:43:21;;;;;;;0.00;0.00;;;16.80;72.60;;;;;;5009717;28;20041;-63
2023/06/10 01:45:46;;;;;;;0.00;0.00;;;16.70;72.60;;;;;;5009727;28;20045;-62
2023/06/10 01:48:12;;;;;;;0.00;0.00;;;16.80;72.60;;;;;;5009965;28;20052;-63
2023/06/10 01:50:38;;;;;;;0.13;0.13;;;16.80;73.10;;;;;;5009455;28;20077;-63
2023/06/10 01:53:04;;;;;;;0.00;0.00;;;16.80;73.00;;;;;;4991819;28;20129;-63
2023/06/10 01:55:29;;;;;;;0.00;0.00;;;16.80;72.80;;;;;;4989952;28;20089;-62
2023/06/10 01:57:55;;;;;;;0.00;0.00;;;16.70;72.60;;;;;;4972720;28;21367;-63
2023/06/10 02:00:20;;;;;;;0.00;0.00;;;16.70;72.40;;;;;;5003427;28;20045;-63
2023/06/10 02:02:46;;;;;;;0.00;0.00;;;16.70;72.20;;;;;;5009388;28;20038;-63
2023/06/10 02:05:12;;;;;;;0.00;0.00;;;16.60;72.20;;;;;;5009586;28;20536;-63
2023/06/10 02:07:37;;;;;;;0.10;0.10;;;16.60;72.50;;;;;;5009407;28;20038;-63
2023/06/10 02:10:05;;;;;;;0.00;0.00;;;16.60;72.50;;;;;;5009714;28;20498;-62
2023/06/10 02:12:31;;;;;;;0.00;0.00;;;16.60;72.80;;;;;;5009472;28;20056;-62
2023/06/10 02:14:56;;;;;;;0.00;0.00;;;16.60;72.80;;;;;;5009237;28;20050;-62
2023/06/10 02:17:23;;;;;;;0.13;0.13;;;16.60;72.70;;;;;;5009655;28;20141;-62
2023/06/10 02:19:52;;;;;;;0.00;0.00;;;16.60;72.60;;;;;;5010191;28;20418;-63
2023/06/10 02:22:20;;;;;;;0.00;0.00;;;16.60;72.80;;;;;;5009441;28;20053;-62
2023/06/10 02:24:46;;;;;;;0.00;0.00;;;16.50;72.80;;;;;;5008865;28;20046;-63
2023/06/10 02:27:11;;;;;;;0.20;0.20;;;16.50;72.80;;;;;;5009374;28;20052;-63
2023/06/10 02:29:37;;;;;;;0.00;0.00;;;16.50;72.80;;;;;;5009067;28;20046;-63
2023/06/10 02:32:03;;;;;;;0.10;0.10;;;16.40;72.60;;;;;;5009540;28;20136;-63
2023/06/10 02:34:29;;;;;;;0.38;0.38;;;16.40;72.80;;;;;;4991860;28;20053;-62
2023/06/10 02:36:54;;;;;;;0.00;0.00;;;16.40;72.70;;;;;;4991986;28;20041;-63
2023/06/10 02:39:21;;;;;;;0.00;0.00;;;16.30;72.60;;;;;;5009074;28;20116;-62
2023/06/10 02:41:46;;;;;;;0.00;0.00;;;16.40;72.70;;;;;;5009336;28;20046;-63
2023/06/10 02:44:12;;;;;;;0.05;0.05;;;16.30;72.70;;;;;;5009031;28;20049;-62
2023/06/10 02:46:37;;;;;;;0.22;0.22;;;16.30;72.90;;;;;;5009304;28;20081;-62
2023/06/10 02:49:03;;;;;;;0.15;0.15;;;16.20;72.80;;;;;;5009270;28;20042;-63
2023/06/10 02:51:28;;;;;;;0.00;0.00;;;16.20;73.10;;;;;;5008229;28;20080;-62
2023/06/10 02:53:54;;;;;;;0.00;0.00;;;16.20;72.80;;;;;;5009172;28;20061;-63
2023/06/10 02:56:20;;;;;;;0.38;0.38;;;16.20;72.80;;;;;;5008913;28;20037;-63
2023/06/10 02:58:45;;;;;;;0.30;0.20;;;16.20;72.60;;;;;;4991821;28;20567;-63
2023/06/10 03:01:12;;;;;;;0.00;0.00;;;16.20;72.50;;;;;;5008858;28;20112;-63
2023/06/10 03:03:40;;;;;;;0.00;0.00;;;16.10;72.60;;;;;;5009062;28;20414;-63
2023/06/10 03:06:06;;;;;;;0.00;0.00;;;16.10;72.50;;;;;;5012964;28;20058;-63
2023/06/10 03:08:32;;;;;;;0.00;0.00;;;16.10;72.30;;;;;;5012627;28;20042;-63
2023/06/10 03:10:57;;;;;;;0.00;0.00;;;16.10;72.50;;;;;;5012621;28;20050;-62
2023/06/10 03:13:23;;;;;;;0.10;0.10;;;16.10;72.60;;;;;;5012076;28;20050;-63
2023/06/10 03:15:49;;;;;;;0.00;0.00;;;16.10;72.50;;;;;;5002707;28;20459;-62
2023/06/10 03:18:15;;;;;;;0.00;0.00;;;16.00;72.50;;;;;;4992685;28;20046;-63
2023/06/10 03:20:40;;;;;;;0.00;0.00;;;16.00;72.60;;;;;;4992661;28;20500;-63
2023/06/10 03:23:06;;;;;;;0.00;0.00;;;16.00;72.70;;;;;;4975581;28;20046;-63
2023/06/10 03:25:32;;;;;;;0.00;0.00;;;16.10;72.80;;;;;;4992993;28;20035;-62
2023/06/10 03:27:57;;;;;;;0.00;0.00;;;16.00;72.80;;;;;;4992642;28;20049;-63
2023/06/10 03:30:23;;;;;;;0.00;0.00;;;16.00;73.20;;;;;;4974997;28;20985;-63
2023/06/10 03:32:49;;;;;;;0.00;0.00;;;16.00;73.40;;;;;;4992847;28;20038;-63
2023/06/10 03:35:14;;;;;;;0.00;0.00;;;16.00;73.10;;;;;;4992553;28;21112;-63
2023/06/10 03:37:40;;;;;;;0.00;0.00;;;16.00;73.30;;;;;;4992820;28;20046;-62
2023/06/10 03:40:08;;;;;;;0.00;0.00;;;16.00;73.40;;;;;;4992263;28;20042;-62
2023/06/10 03:42:34;;;;;;;0.00;0.00;;;16.00;73.70;;;;;;4997601;28;20494;-62
2023/06/10 03:45:00;;;;;;;0.00;0.00;;;16.00;73.60;;;;;;4994307;28;20121;-62
2023/06/10 03:47:26;;;;;;;0.00;0.00;;;16.00;73.80;;;;;;5012246;28;20145;-62
2023/06/10 03:49:52;;;;;;;0.00;0.00;;;15.90;74.00;;;;;;5011738;28;20053;-63
2023/06/10 03:52:18;;;;;;;0.00;0.00;;;16.00;73.80;;;;;;5000749;28;20077;-63
2023/06/10 03:54:44;;;;;;;0.00;0.00;;;15.90;74.10;;;;;;4975193;28;20050;-62
2023/06/10 03:57:09;;;;;;;0.00;0.00;;;16.00;74.10;;;;;;4992310;28;20046;-62
2023/06/10 03:59:35;;;;;;;0.00;0.00;;;16.00;74.30;;;;;;5005440;28;20452;-62
2023/06/10 04:02:01;;;;;;;0.00;0.00;;;16.00;74.70;;;;;;5011564;28;20160;-62
2023/06/10 04:04:27;;;;;;;0.00;0.00;;;15.90;74.50;;;;;;5011623;28;20406;-62
2023/06/10 04:06:52;;;;;;;0.00;0.00;;;16.00;74.40;;;;;;4994027;28;20050;-62
2023/06/10 04:09:18;;;;;;;0.05;0.05;;;16.00;74.30;;;;;;5011110;28;20049;-63
2023/06/10 04:11:44;;;;;;;0.00;0.00;;;16.00;74.10;;;;;;5011522;28;20038;-62
2023/06/10 04:14:09;;;;;;;0.00;0.00;;;16.00;74.10;;;;;;5003325;28;20041;-62
2023/06/10 04:16:35;;;;;;;0.00;0.00;;;16.00;74.20;;;;;;5010246;28;20473;-62
2023/06/10 04:19:01;;;;;;;0.10;0.10;;;16.10;74.40;;;;;;5011129;28;20479;-62
2023/06/10 04:21:27;;;;;;;0.00;0.00;;;16.10;74.50;;;;;;4993739;28;20514;-63
2023/06/10 04:23:53;;;;;;;0.00;0.00;;;16.10;74.50;;;;;;5007215;28;20089;-62
2023/06/10 04:26:18;;;;;;;0.00;0.00;;;16.10;74.80;;;;;;4976740;28;20065;-62
2023/06/10 04:28:44;;;;;;;0.00;0.00;;;16.10;74.60;;;;;;5003182;28;20038;-62
2023/06/10 04:31:10;;;;;;;0.00;0.00;;;16.10;74.60;;;;;;4981891;28;20414;-62
2023/06/10 04:33:36;;;;;;;0.17;0.17;;;16.10;74.40;;;;;;4971501;28;20042;-62
2023/06/10 04:36:02;;;;;;;0.00;0.00;;;16.10;74.20;;;;;;5007357;28;20050;-62
2023/06/10 04:38:28;;;;;;;0.00;0.00;;;16.10;74.60;;;;;;4977234;28;20511;-65
2023/06/10 04:40:53;;;;;;;0.00;0.00;;;16.10;74.70;;;;;;4993327;28;20120;-64
2023/06/10 04:43:19;;;;;;;0.00;0.00;;;16.10;74.70;;;;;;4964258;28;20037;-63
2023/06/10 04:45:45;;;;;;;0.00;0.00;;;16.10;75.00;;;;;;4991561;28;20085;-63
2023/06/10 04:48:11;;;;;;;0.00;0.00;;;16.10;74.90;;;;;;5007320;28;20410;-63
2023/06/10 04:50:37;;;;;;;0.00;0.00;;;16.10;75.20;;;;;;4993170;28;20068;-62
2023/06/10 04:53:03;;;;;;;0.00;0.00;;;16.10;75.30;;;;;;5010285;28;20057;-63
2023/06/10 04:55:28;;;;;;;0.00;0.00;;;16.20;75.10;;;;;;5005403;28;20399;-63
2023/06/10 04:57:54;;;;;;;0.00;0.00;;;16.20;75.10;;;;;;4993736;28;20041;-62
2023/06/10 05:00:20;;;;;;;0.00;0.00;;;16.20;75.20;;;;;;5011017;28;20116;-63
2023/06/10 05:02:49;;;;;;;0.00;0.00;;;16.20;75.60;;;;;;5003919;28;20038;-63
2023/06/10 05:05:18;;;;;;;0.00;0.00;;;16.20;75.50;;;;;;5009254;28;20045;-63
2023/06/10 05:07:43;;;;;;;0.00;0.00;;;16.30;75.40;;;;;;5010065;28;20104;-63
2023/06/10 05:10:10;;;;;;;0.00;0.00;;;16.30;75.80;;;;;;5010555;28;20046;-63
2023/06/10 05:12:35;;;;;;;0.10;0.10;;;16.30;75.60;;;;;;5010649;28;20053;-63
2023/06/10 05:15:01;;;;;;;0.00;0.00;;;16.40;75.30;;;;;;5010094;28;20447;-63
2023/06/10 05:17:27;;;;;;;0.00;0.00;;;16.50;75.80;;;;;;4993124;28;20108;-63
2023/06/10 05:19:52;;;;;;;0.00;0.00;;;16.50;76.00;;;;;;5009726;28;20104;-63
2023/06/10 05:22:18;;;;;;;0.08;0.08;;;16.50;75.90;;;;;;4992487;28;20046;-63
2023/06/10 05:24:44;;;;;;;0.00;0.00;;;16.50;76.10;;;;;;5010277;28;20126;-63
2023/06/10 05:27:10;;;;;;;0.05;0.05;;;16.60;76.10;;;;;;4980406;28;20046;-63
2023/06/10 05:29:36;;;;;;;0.32;0.15;;;16.60;75.80;;;;;;5010112;28;20409;-63
2023/06/10 05:32:03;;;;;;;0.00;0.00;;;16.70;76.00;;;;;;5010265;28;20038;-63
2023/06/10 05:34:32;;;;;;;0.00;0.00;;;16.70;75.30;;;;;;4995622;28;20058;-63
2023/06/10 05:36:57;;;;;;;0.00;0.00;;;16.70;75.30;;;;;;4990642;28;20050;-63
2023/06/10 05:39:23;;;;;;;0.00;0.00;;;16.80;75.00;;;;;;4990283;28;20043;-63
2023/06/10 05:41:48;;;;;;;0.00;0.00;;;16.80;75.10;;;;;;4990585;28;20495;-63
2023/06/10 05:44:14;;;;;;;0.00;0.00;;;16.90;75.30;;;;;;4989786;28;20554;-63
2023/06/10 05:46:40;;;;;;;0.00;0.00;;;16.90;75.60;;;;;;4990440;28;20158;-63
2023/06/10 05:49:05;;;;;;;0.00;0.00;;;16.90;75.60;;;;;;4990498;28;20046;-63
2023/06/10 05:51:31;;;;;;;0.00;0.00;;;17.00;76.10;;;;;;4990212;28;20058;-63
2023/06/10 05:53:56;;;;;;;0.20;0.20;;;17.00;76.20;;;;;;4990030;28;20414;-63
2023/06/10 05:56:22;;;;;;;0.35;0.35;;;17.00;76.00;;;;;;5001944;28;20072;-64
2023/06/10 05:58:48;;;;;;;0.10;0.10;;;17.10;75.60;;;;;;4990191;28;20046;-63
2023/06/10 06:01:14;;;;;;;0.00;0.00;;;17.10;75.90;;;;;;4990072;28;20046;-63
2023/06/10 06:03:40;;;;;;;0.20;0.20;;;17.10;75.80;;;;;;4989703;28;20060;-63
2023/06/10 06:06:06;;;;;;;0.00;0.00;;;17.10;75.90;;;;;;4972656;28;20050;-64
2023/06/10 06:08:31;;;;;;;0.00;0.00;;;17.20;76.00;;;;;;4989823;28;20045;-63
2023/06/10 06:10:57;;;;;;;0.00;0.00;;;17.20;75.60;;;;;;4989914;28;20047;-64
2023/06/10 06:13:23;;;;;;;0.00;0.00;;;17.20;75.40;;;;;;4996757;28;20084;-63
2023/06/10 06:15:49;;;;;;;0.00;0.00;;;17.30;75.70;;;;;;5010259;28;20038;-63
2023/06/10 06:18:15;;;;;;;0.00;0.00;;;17.30;75.50;;;;;;5009415;28;20064;-63
2023/06/10 06:20:40;;;;;;;0.52;0.40;;;17.30;75.50;;;;;;4991605;28;20773;-63
2023/06/10 06:23:08;;;;;;;0.00;0.00;;;17.30;75.60;;;;;;5008764;28;20096;-64
2023/06/10 06:25:35;;;;;;;0.00;0.00;;;17.50;76.00;;;;;;4978515;28;20190;-63
2023/06/10 06:28:01;;;;;;;0.00;0.00;;;17.50;75.80;;;;;;4989759;28;20073;-63
2023/06/10 06:30:26;;;;;;;0.00;0.00;;;17.60;75.60;;;;;;5009223;28;20487;-63
2023/06/10 06:32:52;;;;;;;0.08;0.08;;;17.60;75.80;;;;;;4975664;28;20057;-63
2023/06/10 06:35:18;;;;;;;0.00;0.00;;;17.60;75.50;;;;;;4991978;28;20050;-64
2023/06/10 06:37:44;;;;;;;0.03;0.03;;;17.70;75.40;;;;;;4991663;28;20053;-63
2023/06/10 06:40:10;;;;;;;0.00;0.00;;;17.80;75.20;;;;;;5011863;28;20045;-63
2023/06/10 06:42:35;;;;;;;0.20;0.13;;;17.80;75.30;;;;;;4993625;28;20043;-63
2023/06/10 06:45:01;;;;;;;0.00;0.00;;;17.90;75.20;;;;;;4995816;28;20043;-63
2023/06/10 06:47:26;;;;;;;0.00;0.00;;;17.90;74.80;;;;;;4996608;28;20554;-63
2023/06/10 06:49:52;;;;;;;0.00;0.00;;;18.00;74.70;;;;;;5007049;28;20038;-63
2023/06/10 06:52:18;;;;;;;0.00;0.00;;;18.00;74.50;;;;;;4989406;28;20085;-63
2023/06/10 06:54:44;;;;;;;0.00;0.00;;;18.10;74.60;;;;;;4997375;28;20049;-63
2023/06/10 06:57:10;;;;;;;0.00;0.00;;;18.10;74.40;;;;;;5009042;28;20518;-64
2023/06/10 06:59:36;;;;;;;0.00;0.00;;;18.10;74.30;;;;;;4993151;28;20054;-64
2023/06/10 07:02:02;;;;;;;0.10;0.10;;;18.20;74.20;;;;;;4993151;28;20105;-64
2023/06/10 07:04:28;;;;;;;0.00;0.00;;;18.10;74.20;;;;;;4975858;28;20046;-64
2023/06/10 07:06:54;;;;;;;0.10;0.10;;;18.10;74.20;;;;;;4996531;28;20058;-64
2023/06/10 07:09:19;;;;;;;0.00;0.00;;;18.20;74.10;;;;;;5011989;28;20046;-64
2023/06/10 07:11:45;;;;;;;0.00;0.00;;;18.30;74.20;;;;;;5008498;28;20038;-64
2023/06/10 07:14:10;;;;;;;0.00;0.00;;;18.40;74.20;;;;;;5001592;28;20058;-64
2023/06/10 07:16:36;;;;;;;0.00;0.00;;;18.40;74.20;;;;;;4980203;28;20077;-64
2023/06/10 07:19:02;;;;;;;0.38;0.28;;;18.50;74.20;;;;;;5004833;28;20042;-64
2023/06/10 07:21:28;;;;;;;0.00;0.00;;;18.50;73.80;;;;;;5001130;28;20073;-66
2023/06/10 07:23:54;;;;;;;0.05;0.05;;;18.60;73.60;;;;;;4989980;28;20463;-64
2023/06/10 07:26:21;;;;;;;0.00;0.00;;;18.70;73.60;;;;;;4987622;28;20054;-64
2023/06/10 07:28:47;;;;;;;0.00;0.00;;;18.70;73.50;;;;;;4982227;28;20061;-64
2023/06/10 07:31:13;;;;;;;0.00;0.00;;;18.80;73.70;;;;;;4989126;28;20049;-64
2023/06/10 07:33:43;;;;;;;0.00;0.00;;;18.90;73.30;;;;;;5011279;28;20119;-64
2023/06/10 07:36:09;;;;;;;0.00;0.00;;;19.00;73.00;;;;;;4994429;28;20081;-64
2023/06/10 07:38:35;;;;;;;0.00;0.00;;;19.00;73.00;;;;;;4993266;28;20085;-63
2023/06/10 07:41:00;;;;;;;0.00;0.00;;;19.10;73.10;;;;;;5010719;28;20046;-64
2023/06/10 07:43:26;;;;;;;0.00;0.00;;;19.10;73.10;;;;;;4993683;28;20502;-65
2023/06/10 07:45:52;;;;;;;0.00;0.00;;;19.20;72.60;;;;;;4993993;28;20099;-63
2023/06/10 07:48:18;;;;;;;0.00;0.00;;;19.20;72.60;;;;;;4993431;28;20053;-63
2023/06/10 07:50:43;;;;;;;0.00;0.00;;;19.30;72.70;;;;;;5009407;28;20141;-64
2023/06/10 07:53:09;;;;;;;0.00;0.00;;;19.40;72.60;;;;;;4977037;28;20121;-64
2023/06/10 07:55:35;;;;;;;0.00;0.00;;;19.50;72.30;;;;;;4993656;28;20446;-64
2023/06/10 07:58:01;;;;;;;0.00;0.00;;;19.50;72.00;;;;;;4993499;28;20100;-64
2023/06/10 08:00:26;;;;;;;0.00;0.00;;;19.60;71.70;;;;;;5010833;28;20046;-64
2023/06/10 08:02:52;;;;;;;0.00;0.00;;;19.60;71.50;;;;;;5010704;28;20080;-64
2023/06/10 08:05:17;;;;;;;0.22;0.22;;;19.60;71.40;;;;;;5010486;28;20046;-64
2023/06/10 08:07:44;;;;;;;0.00;0.00;;;19.60;71.30;;;;;;4999472;28;20045;-64
2023/06/10 08:10:10;;;;;;;0.10;0.10;;;19.70;71.10;;;;;;4992429;28;20042;-64
2023/06/10 08:12:36;;;;;;;0.10;0.10;;;19.80;70.20;;;;;;5009065;28;20045;-64
2023/06/10 08:15:03;;;;;;;0.05;0.05;;;19.90;70.10;;;;;;5010320;28;20530;-64
2023/06/10 08:17:30;;;;;;;0.00;0.00;;;20.00;70.20;;;;;;5001489;28;20069;-65
2023/06/10 08:19:55;;;;;;;0.10;0.10;;;20.00;69.90;;;;;;4999739;28;20054;-65
2023/06/10 08:22:21;;;;;;;0.40;0.40;;;20.10;69.80;;;;;;4999683;28;20593;-65
2023/06/10 08:24:47;;;;;;;0.00;0.00;;;20.10;68.30;;;;;;4989314;28;20046;-64
2023/06/10 08:27:12;;;;;;;0.00;0.00;;;20.20;68.90;;;;;;4990226;28;20046;-64
2023/06/10 08:29:39;;;;;;;0.00;0.00;;;20.20;67.80;;;;;;4983254;28;20081;-64
2023/06/10 08:32:05;;;;;;;0.00;0.00;;;20.30;68.00;;;;;;5009217;28;20164;-64
2023/06/10 08:34:35;;;;;;;0.00;0.00;;;20.30;68.50;;;;;;5002266;28;20104;-64
2023/06/10 08:37:01;;;;;;;0.00;0.00;;;20.50;68.30;;;;;;5010907;28;20057;-64
2023/06/10 08:39:27;;;;;;;0.00;0.00;;;20.50;67.00;;;;;;5010177;28;20049;-64
2023/06/10 08:42:22;;;;;;;0.20;0.20;;;20.60;68.00;;;;;;5001873;28;20474;-64
2023/06/10 08:44:52;;;;;;;0.00;0.00;;;20.60;67.10;;;;;;5008747;28;20053;-64
2023/06/10 08:47:19;;;;;;;0.00;0.00;;;20.70;66.90;;;;;;4991937;28;20502;-64
2023/06/10 08:49:46;;;;;;;0.10;0.10;;;20.80;67.10;;;;;;4998487;28;20049;-65
2023/06/10 08:52:20;;;;;;;0.00;0.00;;;20.80;67.00;;;;;;4988328;28;20137;-65
2023/06/10 08:54:58;;;;;;;0.00;0.00;;;20.90;66.60;;;;;;4990215;28;20097;-64
2023/06/10 08:57:25;;;;;;;0.30;0.17;;;21.00;66.30;;;;;;4956332;28;20126;-64
2023/06/10 08:59:53;;;;;;;0.10;0.10;;;21.00;66.30;;;;;;4971654;28;20097;-64
2023/06/10 09:02:20;;;;;;;0.00;0.00;;;21.10;66.10;;;;;;4973034;28;20050;-65
2023/06/10 09:04:47;;;;;;;0.00;0.00;;;21.10;64.00;;;;;;4988791;28;20668;-66
2023/06/10 09:07:15;;;;;;;0.00;0.00;;;21.20;64.00;;;;;;4981503;28;20513;-64
2023/06/10 09:09:43;;;;;;;0.00;0.00;;;21.30;63.70;;;;;;4975774;28;20125;-64
2023/06/10 09:12:09;;;;;;;0.20;0.20;;;21.30;62.10;;;;;;4976635;28;20174;-65
2023/06/10 09:14:35;;;;;;;0.00;0.00;;;21.40;62.40;;;;;;4979727;28;20046;-64
2023/06/10 09:17:01;;;;;;;0.32;0.22;;;21.50;61.40;;;;;;4971402;28;20047;-64
2023/06/10 09:19:28;;;;;;;0.00;0.00;;;21.50;59.60;;;;;;4972103;28;20050;-64
2023/06/10 09:21:53;;;;;;;0.03;0.03;;;21.60;60.90;;;;;;4975427;28;20049;-65
2023/06/10 09:24:20;;;;;;;0.35;0.30;;;21.60;60.90;;;;;;4989185;28;20046;-65
2023/06/10 09:26:46;;;;;;;0.00;0.00;;;21.70;60.20;;;;;;4990723;28;20101;-64
2023/06/10 09:29:11;;;;;;;0.00;0.00;;;21.80;61.30;;;;;;4989992;28;20078;-63
2023/06/10 09:31:39;;;;;;;0.00;0.00;;;21.90;60.00;;;;;;4975182;28;20487;-64
2023/06/10 09:34:09;;;;;;;0.00;0.00;;;22.00;60.10;;;;;;4982868;28;20038;-64
2023/06/10 09:36:36;;;;;;;0.00;0.00;;;22.00;59.40;;;;;;4987487;28;20057;-64
2023/06/10 09:39:02;;;;;;;0.00;0.00;;;22.10;59.90;;;;;;4977178;28;20049;-64
2023/06/10 09:41:35;;;;;;;0.00;0.00;;;22.10;58.10;;;;;;4975509;28;20239;-64
2023/06/10 09:44:01;;;;;;;0.00;0.00;;;22.20;58.10;;;;;;4970877;28;20419;-64
2023/06/10 09:46:32;;;;;;;0.00;0.00;;;22.30;56.80;;;;;;4970678;28;20054;-64
2023/06/10 09:48:57;;;;;;;0.00;0.00;;;22.40;57.70;;;;;;4970897;28;20051;-64
2023/06/10 09:51:23;;;;;;;0.00;0.00;;;22.50;55.80;;;;;;4973519;28;20077;-64
2023/06/10 09:53:51;;;;;;;0.28;0.28;;;22.50;55.80;;;;;;4990238;28;20053;-64
2023/06/10 09:56:17;;;;;;;0.28;0.28;;;22.60;57.00;;;;;;4957093;28;20073;-65
2023/06/10 09:58:43;;;;;;;0.00;0.00;;;22.70;57.80;;;;;;4990222;28;20832;-64
2023/06/10 10:01:14;;;;;;;0.00;0.00;;;22.70;57.00;;;;;;4988831;28;20061;-64
2023/06/10 10:03:45;;;;;;;0.00;0.00;;;22.80;57.10;;;;;;4983737;28;20050;-64
2023/06/10 10:06:12;;;;;;;0.00;0.00;;;22.90;53.50;;;;;;4984614;28;20720;-64
2023/06/10 10:08:38;;;;;;;0.00;0.00;;;22.90;55.00;;;;;;4975461;28;20107;-63
2023/06/10 10:11:03;;;;;;;0.00;0.00;;;23.00;51.80;;;;;;4970976;28;20161;-63
2023/06/10 10:13:33;;;;;;;0.10;0.10;;;23.00;52.20;;;;;;4973575;28;20054;-64
2023/06/10 10:16:01;;;;;;;0.00;0.00;;;23.20;52.90;;;;;;4989592;28;20125;-63
2023/06/10 10:18:30;;;;;;;0.05;0.05;;;23.30;55.20;;;;;;4963407;28;20050;-63
2023/06/10 10:20:57;;;;;;;0.22;0.22;;;23.30;56.20;;;;;;4975176;28;20047;-63
2023/06/10 10:23:31;;;;;;;0.25;0.25;;;23.30;55.90;;;;;;4978620;28;20057;-62
2023/06/10 10:26:00;;;;;;;2.40;1.48;;;23.40;56.40;;;;;;4971754;28;20050;-62
2023/06/10 10:28:34;;;;;;;0.00;0.00;;;23.50;55.50;;;;;;4981480;28;20038;-62
2023/06/10 10:31:07;;;;;;;0.00;0.00;;;23.50;56.10;;;;;;4970244;28;20042;-62
2023/06/10 10:33:52;;;;;;;0.00;0.00;;;23.50;53.40;;;;;;4970014;28;20054;-62
2023/06/10 10:36:19;;;;;;;0.00;0.00;;;23.60;53.70;;;;;;4969141;28;20385;-63
2023/06/10 10:38:47;;;;;;;0.10;0.10;;;23.70;52.90;;;;;;4968738;28;20091;-62
2023/06/10 10:41:13;;;;;;;0.00;0.00;;;23.70;54.70;;;;;;4969872;28;20685;-63
2023/06/10 10:43:40;;;;;;;0.65;0.65;;;23.80;53.40;;;;;;4969252;28;20047;-63
2023/06/10 10:46:12;;;;;;;0.00;0.00;;;23.80;54.00;;;;;;4970796;28;20090;-63
2023/06/10 10:48:39;;;;;;;0.00;0.00;;;23.80;54.30;;;;;;4970498;28;20481;-63
2023/06/10 10:51:05;;;;;;;0.00;0.00;;;23.80;52.60;;;;;;4977159;28;20062;-63
2023/06/10 10:53:30;;;;;;;0.00;0.00;;;23.90;54.30;;;;;;4988879;28;20058;-63
2023/06/10 10:56:05;;;;;;;0.10;0.10;;;24.00;53.30;;;;;;4985714;28;20552;-63
2023/06/10 10:58:31;;;;;;;0.40;0.40;;;24.00;54.20;;;;;;4993050;28;20061;-64
2023/06/10 11:00:57;;;;;;;0.00;0.00;;;24.10;53.30;;;;;;4989574;28;20046;-64
2023/06/10 11:03:29;;;;;;;0.00;0.00;;;24.30;53.20;;;;;;4988886;28;20968;-64
2023/06/10 11:05:58;;;;;;;0.00;0.00;;;24.30;54.10;;;;;;4998518;28;20141;-62
2023/06/10 11:08:32;;;;;;;0.00;0.00;;;24.30;51.40;;;;;;5008696;28;21039;-63
2023/06/10 11:10:57;;;;;;;0.00;0.00;;;24.40;52.00;;;;;;5007440;28;20050;-63
2023/06/10 11:13:25;;;;;;;0.50;0.50;;;24.40;52.00;;;;;;4990329;28;20455;-63
2023/06/10 11:15:51;;;;;;;0.00;0.00;;;24.40;50.40;;;;;;5008750;28;20496;-63
2023/06/10 11:18:26;;;;;;;0.00;0.00;;;24.50;51.50;;;;;;5008427;28;20133;-64
2023/06/10 11:21:04;;;;;;;0.30;0.30;;;24.60;51.10;;;;;;5008753;28;20116;-64
2023/06/10 11:23:32;;;;;;;0.08;0.08;;;24.60;51.40;;;;;;5006488;28;20152;-63
2023/06/10 11:26:15;;;;;;;0.00;0.00;;;24.70;50.60;;;;;;4991481;28;20051;-63
2023/06/10 11:28:47;;;;;;;0.00;0.00;;;24.80;50.50;;;;;;5010613;28;20061;-63
2023/06/10 11:31:22;;;;;;;0.10;0.10;;;24.90;50.40;;;;;;4997452;28;20046;-63
2023/06/10 11:33:58;;;;;;;0.38;0.38;;;24.90;51.10;;;;;;4991316;28;20056;-63
2023/06/10 11:36:28;;;;;;;0.00;0.00;;;25.00;49.90;;;;;;4991573;28;20046;-63
2023/06/10 11:38:56;;;;;;;0.00;0.00;;;25.10;49.70;;;;;;4989428;28;20394;-64
2023/06/10 11:41:25;;;;;;;0.00;0.00;;;25.10;49.50;;;;;;4988729;28;20100;-64
2023/06/10 11:43:51;;;;;;;0.00;0.00;;;25.10;49.70;;;;;;5012127;28;20442;-63
2023/06/10 11:46:17;;;;;;;0.00;0.00;;;25.10;49.10;;;;;;4978244;28;20050;-63
2023/06/10 11:48:51;;;;;;;0.00;0.00;;;25.20;47.50;;;;;;5012079;28;20084;-63
2023/06/10 11:51:16;;;;;;;0.00;0.00;;;25.20;47.60;;;;;;4992615;28;20132;-63
2023/06/10 11:53:49;;;;;;;0.00;0.00;;;25.40;48.50;;;;;;5002698;28;20122;-64
2023/06/10 11:56:27;;;;;;;0.00;0.00;;;25.40;46.70;;;;;;4959153;28;20053;-63
2023/06/10 11:59:07;;;;;;;0.38;0.38;;;25.50;48.70;;;;;;4992300;28;20042;-63
2023/06/10 12:01:34;;;;;;;0.17;0.17;;;25.60;48.90;;;;;;4996902;28;20042;-64
2023/06/10 12:04:01;;;;;;;0.00;0.00;;;25.70;45.10;;;;;;5002844;28;20050;-63
2023/06/10 12:06:27;;;;;;;0.03;0.03;;;25.70;46.60;;;;;;4997483;28;20137;-66
2023/06/10 12:08:54;;;;;;;0.00;0.00;;;25.70;47.10;;;;;;5008848;28;20141;-64
2023/06/10 12:11:20;;;;;;;0.00;0.00;;;25.80;47.30;;;;;;5011602;28;20046;-64
2023/06/10 12:13:50;;;;;;;0.00;0.00;;;25.90;47.20;;;;;;5011431;28;20044;-64
2023/06/10 12:16:16;;;;;;;0.93;0.80;;;25.90;47.20;;;;;;5011231;28;20060;-64
2023/06/10 12:18:44;;;;;;;0.32;0.28;;;25.90;46.10;;;;;;5011626;28;20042;-64
2023/06/10 12:21:24;;;;;;;0.00;0.00;;;25.90;44.70;;;;;;5011093;28;20045;-63
2023/06/10 12:24:07;;;;;;;0.00;0.00;;;26.00;45.20;;;;;;5011061;28;20046;-63
2023/06/10 12:26:36;;;;;;;0.00;0.00;;;26.00;44.80;;;;;;5011088;28;20053;-63
2023/06/10 12:29:12;;;;;;;0.00;0.00;;;26.10;45.50;;;;;;5010733;28;20052;-63
2023/06/10 12:31:58;;;;;;;0.00;0.00;;;26.20;45.40;;;;;;5011167;28;20073;-63
2023/06/10 12:34:33;;;;;;;0.00;0.00;;;26.30;44.90;;;;;;5010721;28;20117;-63
2023/06/10 12:36:59;;;;;;;0.00;0.00;;;26.40;44.60;;;;;;4993230;28;20053;-63
2023/06/10 12:39:24;;;;;;;0.22;0.22;;;26.60;44.50;;;;;;5010736;28;20053;-63
2023/06/10 12:41:52;;;;;;;0.00;0.00;;;26.70;44.30;;;;;;5011065;28;20061;-63
2023/06/10 12:44:17;;;;;;;0.00;0.00;;;26.80;43.60;;;;;;4976965;28;20081;-64
2023/06/10 12:46:43;;;;;;;0.00;0.00;;;27.00;42.50;;;;;;5011115;28;20163;-63
2023/06/10 12:49:19;;;;;;;0.17;0.10;;;27.10;42.50;;;;;;5010965;28;20111;-64